Bald Head, North Carolina
Current Conditions -  °F | °C
As of 7:55 AM on Friday 24 Oct 2014 (Local Time) from KSUT Reporting Station
Clear Clear  
Wind Chill: 45°   Ceiling: Unl
Heat Index: 47°   Visibility: 10mi
Dew Point: 44°   Wind: 6mph
Humidity: 87%   Direction: 360°N
Pressure: 30.02"   Gusts: NA
Location:  34.0734°N, 78.0547°W
Report Text: KSUT 241155Z AUTO 36005KT 10SM CLR 09/07 A3002 RMK AO2 T00850065 10108 20085
Loading
Personal Weather Stations






























Interactive Weather Map
Tropical Storm Tracking
New forecast layout! Learn more

10-Day Weather Forecast

Advertisements
Track Severe Weather on mobile